메인 페이지
METAR-TAF:

METAR-TAF

공항 :

토카트, 터키

위도: 40-18N, 경도: 036-34E, 고도: 608m

현재 날씨관측

예보는 24분 전, 08:50시(UTC)에 발표되었습니다.
남서3kt풍과 서북서풍을 오가는
온도 4°C
습도 81%
기압 1019 hPa
시정: 5000m
고도 2500ft 상공 구름 조금
고도 3200ft 상공 구름 많음
고도 8000ft 상공 구름 많음
박무

METAR: LTAW 090850Z 23003KT 180V300 5000 BR FEW025 BKN032 BKN080 04/01 Q1019

시각: 12:14 (09:14 UTC)

예보

예보는 1 시간 34분 전, 07:40시(UTC)에 발표되었습니다.
예보 대상 시간: 09일 09시부터 09일 18시까지 (UTC)
여러 방향의 바람 2kt
시정: 6000m
고도 2000ft 상공 구름 조금
고도 3200ft 상공 구름 많음
고도 8000ft 상공 구름 많음
전환 중
09일 10시부터 09일 12시까지 (UTC)
고도 3600ft 상공 구름 보통
고도 9000ft 상공 구름 많음

TAF: LTAW 090740Z 0909/0918 VRB02KT 6000 FEW020 BKN032 BKN080 BECMG 0910/0912 SCT036 BKN090

4,000개 이상의 공항 관측 자료 및 예보 (METAR 및 TAF 보고).

지도상에서 검색 가능한 기상관측소가 노란 점과 빨간 점으로 표시되어 있습니다.

기상관측소 명을 보려면 표시 위로 마우스를 이동하세요.

날씨 관측과 예보를 보려면 클릭하세요.

지도 변경 : 확대하려면 엑스 표시가 있는 녹색 버튼, 축소하려면 빼기 표시가 있는 녹색 버튼, 다음 페이지의 지도를 보려면 녹색 화살표를 클릭하세요.


METAR-TAF: